Richmond North's Hourly Summary for Saturday, July 7, 2018
Hour Temp
(f)
RH
(%)
Solar Rad.
(MJ/m2)
Rainfall
(in)
Wind
(mph)
7/7/2018 12:00 AM 76 81 0 0 3.05
7/7/2018 1:00 AM 74 88 0 0.01 1.63
7/7/2018 2:00 AM 75 92 0 0 0.47
7/7/2018 3:00 AM 74 93 0 0 0.02
7/7/2018 4:00 AM 73 97 0 0 0
7/7/2018 5:00 AM 73 98 0 0 0.07
7/7/2018 6:00 AM 75 96 0.04 0 0.83
7/7/2018 7:00 AM 76 85 0.47 0 1.19
7/7/2018 8:00 AM 79 78 1.07 0 1.94
7/7/2018 9:00 AM 82 74 1.56 0 3.56
7/7/2018 10:00 AM 84 66 1.98 0 3.1
7/7/2018 11:00 AM 86 55 2.7 0 3.62
7/7/2018 12:00 PM 87 55 2.68 0 3.51
7/7/2018 1:00 PM 89 49 2.84 0 3.86
7/7/2018 2:00 PM 89 49 2.41 0 3.79
7/7/2018 3:00 PM 84 55 0.73 0.69 4.06
7/7/2018 4:00 PM 75 90 0.34 0.11 1.16
7/7/2018 5:00 PM 76 88 0.14 0 1.75
7/7/2018 6:00 PM 77 84 0.19 0 1.47
7/7/2018 7:00 PM 79 81 0.19 0 1.82
7/7/2018 8:00 PM 76 90 0.02 0 0.05
7/7/2018 9:00 PM 76 93 0 0 0.23
7/7/2018 10:00 PM 76 92 0 0 0.08
7/7/2018 11:00 PM 75 96 0 0 0
Data Summary 78 80 17.36 0.81 1.72